sensor_id;sensor_type;location;lat;lon;timestamp;pressure;altitude;pressure_sealevel;temperature;humidity
64200;BME280;50516;52.272;5.136;2024-01-16T00:02:05;100862.41;;;1.67;94.12
64200;BME280;50516;52.272;5.136;2024-01-16T00:04:33;100851.31;;;1.82;95.26
64200;BME280;50516;52.272;5.136;2024-01-16T00:06:58;100856.03;;;2.00;95.04
64200;BME280;50516;52.272;5.136;2024-01-16T00:09:24;100862.66;;;2.11;94.80
64200;BME280;50516;52.272;5.136;2024-01-16T00:11:49;100847.00;;;2.13;94.91
64200;BME280;50516;52.272;5.136;2024-01-16T00:14:14;100849.97;;;2.05;94.55
64200;BME280;50516;52.272;5.136;2024-01-16T00:16:43;100855.13;;;2.13;95.04
64200;BME280;50516;52.272;5.136;2024-01-16T00:19:10;100855.09;;;2.19;94.54
64200;BME280;50516;52.272;5.136;2024-01-16T00:21:44;100854.91;;;2.14;94.39
64200;BME280;50516;52.272;5.136;2024-01-16T00:24:14;100861.00;;;2.10;94.19
64200;BME280;50516;52.272;5.136;2024-01-16T00:26:40;100858.56;;;1.95;93.95
64200;BME280;50516;52.272;5.136;2024-01-16T00:29:05;100848.13;;;1.98;93.73
64200;BME280;50516;52.272;5.136;2024-01-16T00:31:38;100863.31;;;2.06;93.56
64200;BME280;50516;52.272;5.136;2024-01-16T00:34:03;100861.81;;;2.17;93.41
64200;BME280;50516;52.272;5.136;2024-01-16T00:36:32;100856.38;;;2.17;92.52
64200;BME280;50516;52.272;5.136;2024-01-16T00:38:59;100857.41;;;2.16;92.93
64200;BME280;50516;52.272;5.136;2024-01-16T00:41:24;100853.88;;;2.15;91.93
64200;BME280;50516;52.272;5.136;2024-01-16T00:43:57;100848.44;;;2.22;92.05
64200;BME280;50516;52.272;5.136;2024-01-16T00:46:24;100850.97;;;2.17;91.74
64200;BME280;50516;52.272;5.136;2024-01-16T00:48:49;100862.41;;;2.19;91.05
64200;BME280;50516;52.272;5.136;2024-01-16T00:51:17;100859.34;;;2.09;91.45
64200;BME280;50516;52.272;5.136;2024-01-16T00:53:43;100853.50;;;2.12;91.19
64200;BME280;50516;52.272;5.136;2024-01-16T00:56:09;100867.28;;;2.04;91.28
64200;BME280;50516;52.272;5.136;2024-01-16T00:58:35;100865.63;;;2.03;91.38
64200;BME280;50516;52.272;5.136;2024-01-16T01:01:00;100866.66;;;2.01;90.89
64200;BME280;50516;52.272;5.136;2024-01-16T01:03:28;100866.03;;;1.99;90.80
64200;BME280;50516;52.272;5.136;2024-01-16T01:05:54;100878.34;;;1.95;91.02
64200;BME280;50516;52.272;5.136;2024-01-16T01:08:22;100881.50;;;1.92;91.12
64200;BME280;50516;52.272;5.136;2024-01-16T01:10:47;100878.53;;;2.00;90.39
64200;BME280;50516;52.272;5.136;2024-01-16T01:13:13;100875.59;;;2.09;90.32
64200;BME280;50516;52.272;5.136;2024-01-16T01:15:38;100878.72;;;2.06;89.51
64200;BME280;50516;52.272;5.136;2024-01-16T01:18:03;100888.09;;;2.03;90.06
64200;BME280;50516;52.272;5.136;2024-01-16T01:20:29;100906.59;;;2.13;90.61
64200;BME280;50516;52.272;5.136;2024-01-16T01:23:00;100916.84;;;2.11;90.18
64200;BME280;50516;52.272;5.136;2024-01-16T01:25:28;100925.53;;;1.54;92.35
64200;BME280;50516;52.272;5.136;2024-01-16T01:27:53;100914.25;;;1.71;93.73
64200;BME280;50516;52.272;5.136;2024-01-16T01:30:19;100918.00;;;1.56;96.18
64200;BME280;50516;52.272;5.136;2024-01-16T01:32:44;100915.97;;;1.38;97.80
64200;BME280;50516;52.272;5.136;2024-01-16T01:35:09;100912.22;;;0.99;100.00
64200;BME280;50516;52.272;5.136;2024-01-16T01:37:37;100915.34;;;0.89;100.00
64200;BME280;50516;52.272;5.136;2024-01-16T01:40:02;100911.78;;;0.82;100.00
64200;BME280;50516;52.272;5.136;2024-01-16T01:42:30;100907.44;;;0.81;100.00
64200;BME280;50516;52.272;5.136;2024-01-16T01:44:56;100878.31;;;0.90;100.00
64200;BME280;50516;52.272;5.136;2024-01-16T01:47:21;100876.25;;;1.12;100.00
64200;BME280;50516;52.272;5.136;2024-01-16T01:49:47;100872.69;;;1.32;100.00
64200;BME280;50516;52.272;5.136;2024-01-16T01:52:13;100882.88;;;1.43;100.00
64200;BME280;50516;52.272;5.136;2024-01-16T01:54:40;100889.75;;;1.45;100.00
64200;BME280;50516;52.272;5.136;2024-01-16T01:57:17;100885.97;;;1.53;100.00
64200;BME280;50516;52.272;5.136;2024-01-16T01:59:43;100886.31;;;1.77;100.00
64200;BME280;50516;52.272;5.136;2024-01-16T02:02:08;100891.31;;;1.80;100.00
64200;BME280;50516;52.272;5.136;2024-01-16T02:04:36;100902.94;;;1.87;100.00
64200;BME280;50516;52.272;5.136;2024-01-16T02:07:04;100903.78;;;1.94;100.00
64200;BME280;50516;52.272;5.136;2024-01-16T02:09:30;100894.38;;;1.97;100.00
64200;BME280;50516;52.272;5.136;2024-01-16T02:11:55;100894.81;;;1.94;100.00
64200;BME280;50516;52.272;5.136;2024-01-16T02:14:21;100893.53;;;2.03;100.00
64200;BME280;50516;52.272;5.136;2024-01-16T02:16:46;100894.38;;;2.04;100.00
64200;BME280;50516;52.272;5.136;2024-01-16T02:19:11;100893.28;;;2.11;100.00
64200;BME280;50516;52.272;5.136;2024-01-16T02:21:41;100905.41;;;2.02;100.00
64200;BME280;50516;52.272;5.136;2024-01-16T02:24:10;100888.75;;;1.98;100.00
64200;BME280;50516;52.272;5.136;2024-01-16T02:26:37;100897.69;;;2.06;100.00
64200;BME280;50516;52.272;5.136;2024-01-16T02:29:02;100886.44;;;2.09;100.00
64200;BME280;50516;52.272;5.136;2024-01-16T02:31:32;100878.47;;;2.14;100.00
64200;BME280;50516;52.272;5.136;2024-01-16T02:33:57;100888.06;;;2.10;100.00
64200;BME280;50516;52.272;5.136;2024-01-16T02:36:24;100887.19;;;2.23;100.00
64200;BME280;50516;52.272;5.136;2024-01-16T02:38:49;100890.97;;;2.22;100.00
64200;BME280;50516;52.272;5.136;2024-01-16T02:41:15;100879.13;;;2.09;100.00
64200;BME280;50516;52.272;5.136;2024-01-16T02:43:41;100889.09;;;2.15;100.00
64200;BME280;50516;52.272;5.136;2024-01-16T02:46:06;100887.22;;;2.16;100.00
64200;BME280;50516;52.272;5.136;2024-01-16T02:48:32;100883.53;;;2.04;100.00
64200;BME280;50516;52.272;5.136;2024-01-16T02:50:57;100883.09;;;2.07;100.00
64200;BME280;50516;52.272;5.136;2024-01-16T02:53:25;100880.53;;;2.18;100.00
64200;BME280;50516;52.272;5.136;2024-01-16T02:55:52;100887.19;;;2.23;100.00
64200;BME280;50516;52.272;5.136;2024-01-16T02:58:18;100892.38;;;2.24;100.00
64200;BME280;50516;52.272;5.136;2024-01-16T03:00:43;100884.97;;;2.06;100.00
64200;BME280;50516;52.272;5.136;2024-01-16T03:03:08;100889.16;;;1.95;100.00
64200;BME280;50516;52.272;5.136;2024-01-16T03:05:34;100878.97;;;1.97;100.00
64200;BME280;50516;52.272;5.136;2024-01-16T03:07:59;100883.50;;;2.10;100.00
64200;BME280;50516;52.272;5.136;2024-01-16T03:10:25;100867.59;;;2.21;100.00
64200;BME280;50516;52.272;5.136;2024-01-16T03:12:50;100872.81;;;2.22;100.00
64200;BME280;50516;52.272;5.136;2024-01-16T03:15:16;100875.31;;;2.24;100.00
64200;BME280;50516;52.272;5.136;2024-01-16T03:17:41;100867.56;;;2.27;100.00
64200;BME280;50516;52.272;5.136;2024-01-16T03:20:09;100876.09;;;2.31;100.00
64200;BME280;50516;52.272;5.136;2024-01-16T03:22:35;100869.69;;;2.25;100.00
64200;BME280;50516;52.272;5.136;2024-01-16T03:25:00;100865.28;;;2.24;100.00
64200;BME280;50516;52.272;5.136;2024-01-16T03:27:27;100866.34;;;2.23;100.00
64200;BME280;50516;52.272;5.136;2024-01-16T03:29:56;100863.81;;;2.28;100.00
64200;BME280;50516;52.272;5.136;2024-01-16T03:32:27;100871.56;;;2.18;100.00
64200;BME280;50516;52.272;5.136;2024-01-16T03:34:52;100863.88;;;2.22;100.00
64200;BME280;50516;52.272;5.136;2024-01-16T03:37:18;100865.06;;;2.26;100.00
64200;BME280;50516;52.272;5.136;2024-01-16T03:39:43;100868.81;;;2.31;100.00
64200;BME280;50516;52.272;5.136;2024-01-16T03:42:10;100864.88;;;2.27;100.00
64200;BME280;50516;52.272;5.136;2024-01-16T03:44:39;100866.53;;;2.28;100.00
64200;BME280;50516;52.272;5.136;2024-01-16T03:47:05;100866.16;;;2.25;100.00
64200;BME280;50516;52.272;5.136;2024-01-16T03:49:31;100870.09;;;2.22;100.00
64200;BME280;50516;52.272;5.136;2024-01-16T03:51:56;100868.44;;;2.21;100.00
64200;BME280;50516;52.272;5.136;2024-01-16T03:54:21;100883.06;;;2.13;100.00
64200;BME280;50516;52.272;5.136;2024-01-16T03:56:47;100883.97;;;2.00;100.00
64200;BME280;50516;52.272;5.136;2024-01-16T03:59:12;100890.56;;;2.11;100.00
64200;BME280;50516;52.272;5.136;2024-01-16T04:01:41;100879.09;;;2.16;100.00
64200;BME280;50516;52.272;5.136;2024-01-16T04:04:08;100879.69;;;2.18;100.00
64200;BME280;50516;52.272;5.136;2024-01-16T04:06:33;100886.34;;;2.22;100.00
64200;BME280;50516;52.272;5.136;2024-01-16T04:08:58;100879.25;;;2.28;100.00
64200;BME280;50516;52.272;5.136;2024-01-16T04:11:24;100887.38;;;2.28;100.00
64200;BME280;50516;52.272;5.136;2024-01-16T04:13:49;100885.72;;;2.27;100.00
64200;BME280;50516;52.272;5.136;2024-01-16T04:16:15;100889.69;;;2.24;100.00
64200;BME280;50516;52.272;5.136;2024-01-16T04:18:43;100873.66;;;2.16;100.00
64200;BME280;50516;52.272;5.136;2024-01-16T04:21:08;100864.25;;;2.25;100.00
64200;BME280;50516;52.272;5.136;2024-01-16T04:23:37;100865.47;;;2.29;100.00
64200;BME280;50516;52.272;5.136;2024-01-16T04:26:02;100873.16;;;2.32;100.00
64200;BME280;50516;52.272;5.136;2024-01-16T04:28:28;100860.84;;;2.36;100.00
64200;BME280;50516;52.272;5.136;2024-01-16T04:30:53;100871.31;;;2.33;100.00
64200;BME280;50516;52.272;5.136;2024-01-16T04:33:18;100860.47;;;2.33;100.00
64200;BME280;50516;52.272;5.136;2024-01-16T04:35:44;100858.41;;;2.28;100.00
64200;BME280;50516;52.272;5.136;2024-01-16T04:38:09;100854.63;;;2.29;100.00
64200;BME280;50516;52.272;5.136;2024-01-16T04:40:35;100848.59;;;2.27;100.00
64200;BME280;50516;52.272;5.136;2024-01-16T04:43:01;100844.66;;;2.30;100.00
64200;BME280;50516;52.272;5.136;2024-01-16T04:45:30;100852.38;;;2.26;100.00
64200;BME280;50516;52.272;5.136;2024-01-16T04:47:55;100847.13;;;2.31;100.00
64200;BME280;50516;52.272;5.136;2024-01-16T04:50:21;100842.59;;;2.25;99.84
64200;BME280;50516;52.272;5.136;2024-01-16T04:52:46;100844.72;;;2.16;100.00
64200;BME280;50516;52.272;5.136;2024-01-16T04:55:11;100844.72;;;2.16;100.00
64200;BME280;50516;52.272;5.136;2024-01-16T04:57:39;100837.50;;;1.97;100.00
64200;BME280;50516;52.272;5.136;2024-01-16T05:00:14;100837.28;;;1.98;100.00
64200;BME280;50516;52.272;5.136;2024-01-16T05:02:39;100836.25;;;1.99;100.00
64200;BME280;50516;52.272;5.136;2024-01-16T05:05:05;100839.41;;;1.90;100.00
64200;BME280;50516;52.272;5.136;2024-01-16T05:07:31;100835.25;;;1.94;100.00
64200;BME280;50516;52.272;5.136;2024-01-16T05:09:56;100835.44;;;1.99;100.00
64200;BME280;50516;52.272;5.136;2024-01-16T05:12:23;100830.66;;;1.94;100.00
64200;BME280;50516;52.272;5.136;2024-01-16T05:14:51;100827.75;;;1.96;99.87
64200;BME280;50516;52.272;5.136;2024-01-16T05:17:16;100818.63;;;1.83;100.00
64200;BME280;50516;52.272;5.136;2024-01-16T05:19:41;100820.28;;;1.85;100.00
64200;BME280;50516;52.272;5.136;2024-01-16T05:22:07;100817.13;;;1.94;100.00
64200;BME280;50516;52.272;5.136;2024-01-16T05:24:32;100816.09;;;1.89;100.00
64200;BME280;50516;52.272;5.136;2024-01-16T05:26:58;100818.22;;;1.80;99.64
64200;BME280;50516;52.272;5.136;2024-01-16T05:29:24;100816.31;;;1.87;100.00
64200;BME280;50516;52.272;5.136;2024-01-16T05:31:55;100809.47;;;1.85;99.77
64200;BME280;50516;52.272;5.136;2024-01-16T05:34:20;100802.16;;;1.85;99.87
64200;BME280;50516;52.272;5.136;2024-01-16T05:36:46;100813.81;;;1.86;100.00
64200;BME280;50516;52.272;5.136;2024-01-16T05:39:11;100817.13;;;1.94;99.70
64200;BME280;50516;52.272;5.136;2024-01-16T05:41:36;100815.22;;;1.95;99.88
64200;BME280;50516;52.272;5.136;2024-01-16T05:44:03;100817.53;;;1.91;99.09
64200;BME280;50516;52.272;5.136;2024-01-16T05:46:32;100811.28;;;1.97;99.28
64200;BME280;50516;52.272;5.136;2024-01-16T05:48:57;100807.94;;;1.95;99.86
64200;BME280;50516;52.272;5.136;2024-01-16T05:51:23;100808.81;;;1.89;99.80
64200;BME280;50516;52.272;5.136;2024-01-16T05:53:48;100803.66;;;1.81;99.65
64200;BME280;50516;52.272;5.136;2024-01-16T05:56:13;100790.34;;;1.73;100.00
64200;BME280;50516;52.272;5.136;2024-01-16T05:58:39;100797.88;;;1.64;100.00
64200;BME280;50516;52.272;5.136;2024-01-16T06:01:05;100798.69;;;1.71;100.00
64200;BME280;50516;52.272;5.136;2024-01-16T06:03:31;100802.78;;;1.87;100.00
64200;BME280;50516;52.272;5.136;2024-01-16T06:05:56;100805.72;;;1.79;100.00
64200;BME280;50516;52.272;5.136;2024-01-16T06:08:25;100812.81;;;1.80;100.00
64200;BME280;50516;52.272;5.136;2024-01-16T06:10:50;100803.72;;;1.61;100.00
64200;BME280;50516;52.272;5.136;2024-01-16T06:13:18;100811.66;;;1.56;100.00
64200;BME280;50516;52.272;5.136;2024-01-16T06:15:43;100806.22;;;1.62;100.00
64200;BME280;50516;52.272;5.136;2024-01-16T06:18:12;100801.16;;;1.73;100.00
64200;BME280;50516;52.272;5.136;2024-01-16T06:20:38;100802.84;;;1.74;100.00
64200;BME280;50516;52.272;5.136;2024-01-16T06:23:04;100786.66;;;1.60;100.00
64200;BME280;50516;52.272;5.136;2024-01-16T06:25:29;100785.41;;;1.56;100.00
64200;BME280;50516;52.272;5.136;2024-01-16T06:27:54;100803.53;;;1.56;100.00
64200;BME280;50516;52.272;5.136;2024-01-16T06:30:21;100804.59;;;1.48;100.00
64200;BME280;50516;52.272;5.136;2024-01-16T06:32:46;100796.72;;;1.40;100.00
64200;BME280;50516;52.272;5.136;2024-01-16T06:35:12;100795.19;;;1.57;100.00
64200;BME280;50516;52.272;5.136;2024-01-16T06:37:38;100807.81;;;1.77;100.00
64200;BME280;50516;52.272;5.136;2024-01-16T06:40:04;100812.38;;;1.83;100.00
64200;BME280;50516;52.272;5.136;2024-01-16T06:42:30;100813.84;;;1.79;100.00
64200;BME280;50516;52.272;5.136;2024-01-16T06:44:57;100823.53;;;1.48;100.00
64200;BME280;50516;52.272;5.136;2024-01-16T06:47:22;100821.47;;;1.37;100.00
64200;BME280;50516;52.272;5.136;2024-01-16T06:49:49;100813.81;;;1.27;100.00
64200;BME280;50516;52.272;5.136;2024-01-16T06:52:14;100811.31;;;1.25;100.00
64200;BME280;50516;52.272;5.136;2024-01-16T06:54:39;100809.25;;;1.21;100.00
64200;BME280;50516;52.272;5.136;2024-01-16T06:57:05;100811.91;;;1.27;100.00
64200;BME280;50516;52.272;5.136;2024-01-16T06:59:30;100813.59;;;1.28;100.00
64200;BME280;50516;52.272;5.136;2024-01-16T07:01:55;100808.56;;;1.52;100.00
64200;BME280;50516;52.272;5.136;2024-01-16T07:04:21;100814.13;;;1.64;100.00
64200;BME280;50516;52.272;5.136;2024-01-16T07:06:46;100815.38;;;1.68;100.00
64200;BME280;50516;52.272;5.136;2024-01-16T07:09:12;100810.88;;;1.87;100.00
64200;BME280;50516;52.272;5.136;2024-01-16T07:11:38;100809.59;;;1.96;100.00
64200;BME280;50516;52.272;5.136;2024-01-16T07:14:08;100815.56;;;2.12;100.00
64200;BME280;50516;52.272;5.136;2024-01-16T07:16:37;100819.06;;;2.19;100.00
64200;BME280;50516;52.272;5.136;2024-01-16T07:19:05;100825.72;;;2.23;100.00
64200;BME280;50516;52.272;5.136;2024-01-16T07:21:30;100816.69;;;2.29;100.00
64200;BME280;50516;52.272;5.136;2024-01-16T07:23:56;100824.19;;;2.34;100.00
64200;BME280;50516;52.272;5.136;2024-01-16T07:26:22;100821.69;;;2.32;100.00
64200;BME280;50516;52.272;5.136;2024-01-16T07:28:48;100823.19;;;2.28;100.00
64200;BME280;50516;52.272;5.136;2024-01-16T07:31:16;100823.56;;;2.32;100.00
64200;BME280;50516;52.272;5.136;2024-01-16T07:33:45;100816.25;;;2.32;100.00
64200;BME280;50516;52.272;5.136;2024-01-16T07:36:11;100818.53;;;2.35;100.00
64200;BME280;50516;52.272;5.136;2024-01-16T07:38:37;100818.53;;;2.35;100.00
64200;BME280;50516;52.272;5.136;2024-01-16T07:41:03;100824.59;;;2.37;100.00
64200;BME280;50516;52.272;5.136;2024-01-16T07:43:28;100832.72;;;2.37;100.00
64200;BME280;50516;52.272;5.136;2024-01-16T07:45:55;100841.25;;;2.41;100.00
64200;BME280;50516;52.272;5.136;2024-01-16T07:48:23;100838.75;;;2.40;100.00
64200;BME280;50516;52.272;5.136;2024-01-16T07:50:51;100839.09;;;2.50;100.00
64200;BME280;50516;52.272;5.136;2024-01-16T07:53:17;100842.22;;;2.47;100.00
64200;BME280;50516;52.272;5.136;2024-01-16T07:55:42;100843.09;;;2.41;100.00
64200;BME280;50516;52.272;5.136;2024-01-16T07:58:13;100846.63;;;2.48;100.00
64200;BME280;50516;52.272;5.136;2024-01-16T08:00:42;100844.50;;;2.50;100.00
64200;BME280;50516;52.272;5.136;2024-01-16T08:03:08;100856.59;;;2.54;99.92
64200;BME280;50516;52.272;5.136;2024-01-16T08:05:36;100839.47;;;2.53;100.00
64200;BME280;50516;52.272;5.136;2024-01-16T08:08:02;100843.47;;;2.51;99.79
64200;BME280;50516;52.272;5.136;2024-01-16T08:10:28;100840.16;;;2.49;99.60
64200;BME280;50516;52.272;5.136;2024-01-16T08:12:53;100843.03;;;2.54;99.54
64200;BME280;50516;52.272;5.136;2024-01-16T08:15:21;100838.66;;;2.53;99.50
64200;BME280;50516;52.272;5.136;2024-01-16T08:17:47;100843.41;;;2.58;99.24
64200;BME280;50516;52.272;5.136;2024-01-16T08:20:13;100839.03;;;2.56;99.65
64200;BME280;50516;52.272;5.136;2024-01-16T08:22:38;100831.34;;;2.53;99.36
64200;BME280;50516;52.272;5.136;2024-01-16T08:25:04;100830.97;;;2.50;99.23
64200;BME280;50516;52.272;5.136;2024-01-16T08:27:35;100833.66;;;2.50;99.28
64200;BME280;50516;52.272;5.136;2024-01-16T08:30:04;100833.22;;;2.53;99.18
64200;BME280;50516;52.272;5.136;2024-01-16T08:32:29;100831.59;;;2.45;98.88
64200;BME280;50516;52.272;5.136;2024-01-16T08:34:54;100832.03;;;2.49;98.24
64200;BME280;50516;52.272;5.136;2024-01-16T08:37:20;100829.13;;;2.44;98.33
64200;BME280;50516;52.272;5.136;2024-01-16T08:39:45;100828.50;;;2.42;98.46
64200;BME280;50516;52.272;5.136;2024-01-16T08:42:10;100833.88;;;2.48;98.20
64200;BME280;50516;52.272;5.136;2024-01-16T08:44:38;100825.69;;;2.55;97.81
64200;BME280;50516;52.272;5.136;2024-01-16T08:47:07;100824.59;;;2.63;97.64
64200;BME280;50516;52.272;5.136;2024-01-16T08:49:35;100827.91;;;2.65;97.25
64200;BME280;50516;52.272;5.136;2024-01-16T08:52:00;100836.84;;;2.72;96.73
64200;BME280;50516;52.272;5.136;2024-01-16T08:54:27;100818.84;;;2.78;95.92
64200;BME280;50516;52.272;5.136;2024-01-16T08:56:56;100830.94;;;2.82;96.21
64200;BME280;50516;52.272;5.136;2024-01-16T08:59:21;100825.94;;;2.79;95.75
64200;BME280;50516;52.272;5.136;2024-01-16T09:01:47;100827.63;;;2.80;95.80
64200;BME280;50516;52.272;5.136;2024-01-16T09:04:12;100819.66;;;2.85;95.31
64200;BME280;50516;52.272;5.136;2024-01-16T09:06:38;100821.25;;;2.92;94.65
64200;BME280;50516;52.272;5.136;2024-01-16T09:09:03;100818.53;;;2.92;94.34
64200;BME280;50516;52.272;5.136;2024-01-16T09:11:31;100816.81;;;2.98;94.23
64200;BME280;50516;52.272;5.136;2024-01-16T09:13:59;100820.13;;;3.00;93.67
64200;BME280;50516;52.272;5.136;2024-01-16T09:16:25;100824.50;;;3.01;93.31
64200;BME280;50516;52.272;5.136;2024-01-16T09:18:51;100821.19;;;2.99;93.15
64200;BME280;50516;52.272;5.136;2024-01-16T09:21:20;100822.41;;;3.03;93.36
64200;BME280;50516;52.272;5.136;2024-01-16T09:23:45;100817.97;;;3.09;92.82
64200;BME280;50516;52.272;5.136;2024-01-16T09:26:10;100826.56;;;3.06;92.48
64200;BME280;50516;52.272;5.136;2024-01-16T09:28:39;100832.19;;;3.04;92.31
64200;BME280;50516;52.272;5.136;2024-01-16T09:31:06;100830.88;;;3.14;91.88
64200;BME280;50516;52.272;5.136;2024-01-16T09:33:34;100828.72;;;2.97;91.95
64200;BME280;50516;52.272;5.136;2024-01-16T09:36:00;100828.66;;;3.04;92.22
64200;BME280;50516;52.272;5.136;2024-01-16T09:38:25;100823.19;;;3.10;92.18
64200;BME280;50516;52.272;5.136;2024-01-16T09:40:50;100826.94;;;3.09;91.88
64200;BME280;50516;52.272;5.136;2024-01-16T09:43:18;100822.88;;;3.19;91.66
64200;BME280;50516;52.272;5.136;2024-01-16T09:45:55;100817.84;;;3.22;90.93
64200;BME280;50516;52.272;5.136;2024-01-16T09:48:21;100823.84;;;3.24;90.99
64200;BME280;50516;52.272;5.136;2024-01-16T09:50:46;100811.66;;;3.34;90.44
64200;BME280;50516;52.272;5.136;2024-01-16T09:53:11;100823.22;;;3.47;90.11
64200;BME280;50516;52.272;5.136;2024-01-16T09:55:37;100818.47;;;3.43;89.97
64200;BME280;50516;52.272;5.136;2024-01-16T09:58:05;100816.72;;;3.48;90.34
64200;BME280;50516;52.272;5.136;2024-01-16T10:00:30;100802.09;;;3.50;89.78
64200;BME280;50516;52.272;5.136;2024-01-16T10:02:57;100805.19;;;3.53;89.65
64200;BME280;50516;52.272;5.136;2024-01-16T10:05:24;100809.19;;;3.51;89.52
64200;BME280;50516;52.272;5.136;2024-01-16T10:07:51;100791.97;;;3.57;89.56
64200;BME280;50516;52.272;5.136;2024-01-16T10:10:17;100801.03;;;3.88;88.57
64200;BME280;50516;52.272;5.136;2024-01-16T10:12:43;100801.16;;;3.93;88.27
64200;BME280;50516;52.272;5.136;2024-01-16T10:15:09;100799.44;;;3.80;88.46
64200;BME280;50516;52.272;5.136;2024-01-16T10:17:42;100805.38;;;3.89;88.90
64200;BME280;50516;52.272;5.136;2024-01-16T10:20:08;100801.94;;;3.81;88.51
64200;BME280;50516;52.272;5.136;2024-01-16T10:22:39;100795.72;;;3.93;87.95
64200;BME280;50516;52.272;5.136;2024-01-16T10:25:09;100789.97;;;4.01;87.88
64200;BME280;50516;52.272;5.136;2024-01-16T10:27:38;100792.72;;;4.13;87.37
64200;BME280;50516;52.272;5.136;2024-01-16T10:30:04;100789.56;;;4.16;86.84
64200;BME280;50516;52.272;5.136;2024-01-16T10:32:31;100795.34;;;4.19;87.29
64200;BME280;50516;52.272;5.136;2024-01-16T10:35:09;100792.16;;;4.23;86.53
64200;BME280;50516;52.272;5.136;2024-01-16T10:37:52;100787.66;;;4.16;87.24
64200;BME280;50516;52.272;5.136;2024-01-16T10:40:22;100798.97;;;4.13;87.11
64200;BME280;50516;52.272;5.136;2024-01-16T10:43:17;100791.44;;;4.15;87.03
64200;BME280;50516;52.272;5.136;2024-01-16T10:45:42;100789.00;;;4.26;86.73
64200;BME280;50516;52.272;5.136;2024-01-16T10:48:08;100798.81;;;4.27;85.91
64200;BME280;50516;52.272;5.136;2024-01-16T10:50:38;100795.63;;;4.30;86.72
64200;BME280;50516;52.272;5.136;2024-01-16T10:53:06;100791.59;;;4.20;86.12
64200;BME280;50516;52.272;5.136;2024-01-16T10:55:38;100785.88;;;4.10;86.25
64200;BME280;50516;52.272;5.136;2024-01-16T10:58:07;100795.03;;;3.97;85.90
64200;BME280;50516;52.272;5.136;2024-01-16T11:00:37;100791.78;;;4.07;86.44
64200;BME280;50516;52.272;5.136;2024-01-16T11:03:07;100786.84;;;4.16;85.23
64200;BME280;50516;52.272;5.136;2024-01-16T11:05:36;100776.72;;;4.23;85.22
64200;BME280;50516;52.272;5.136;2024-01-16T11:08:05;100769.28;;;4.42;84.94
64200;BME280;50516;52.272;5.136;2024-01-16T11:10:33;100766.00;;;4.52;83.28
64200;BME280;50516;52.272;5.136;2024-01-16T11:13:02;100766.75;;;4.71;83.03
64200;BME280;50516;52.272;5.136;2024-01-16T11:15:31;100763.19;;;4.94;82.62
64200;BME280;50516;52.272;5.136;2024-01-16T11:17:59;100762.59;;;5.04;82.38
64200;BME280;50516;52.272;5.136;2024-01-16T11:20:27;100757.97;;;5.16;81.19
64200;BME280;50516;52.272;5.136;2024-01-16T11:22:54;100755.38;;;5.21;81.10
64200;BME280;50516;52.272;5.136;2024-01-16T11:25:31;100752.66;;;5.21;81.09
64200;BME280;50516;52.272;5.136;2024-01-16T11:28:11;100748.72;;;5.29;80.98
64200;BME280;50516;52.272;5.136;2024-01-16T11:30:37;100742.00;;;5.20;80.63
64200;BME280;50516;52.272;5.136;2024-01-16T11:33:03;100736.69;;;5.13;80.74
64200;BME280;50516;52.272;5.136;2024-01-16T11:35:37;100737.03;;;5.17;81.33
64200;BME280;50516;52.272;5.136;2024-01-16T11:38:04;100739.06;;;5.09;81.55
64200;BME280;50516;52.272;5.136;2024-01-16T11:40:32;100738.84;;;4.75;82.34
64200;BME280;50516;52.272;5.136;2024-01-16T11:42:57;100734.91;;;4.71;81.75
64200;BME280;50516;52.272;5.136;2024-01-16T11:48:13;100734.09;;;4.59;82.81
64200;BME280;50516;52.272;5.136;2024-01-16T11:50:40;100729.38;;;4.54;82.99
64200;BME280;50516;52.272;5.136;2024-01-16T11:53:06;100724.75;;;4.43;83.01
64200;BME280;50516;52.272;5.136;2024-01-16T11:55:33;100722.72;;;4.38;83.48
64200;BME280;50516;52.272;5.136;2024-01-16T11:58:20;100711.25;;;4.36;83.24
64200;BME280;50516;52.272;5.136;2024-01-16T12:00:49;100716.56;;;4.31;83.33
64200;BME280;50516;52.272;5.136;2024-01-16T12:03:21;100707.00;;;4.29;83.38
64200;BME280;50516;52.272;5.136;2024-01-16T12:06:00;100715.72;;;4.19;83.32
64200;BME280;50516;52.272;5.136;2024-01-16T12:08:26;100707.44;;;4.14;83.71
64200;BME280;50516;52.272;5.136;2024-01-16T12:10:52;100713.59;;;4.21;83.83
64200;BME280;50516;52.272;5.136;2024-01-16T12:13:17;100713.00;;;4.31;83.18
64200;BME280;50516;52.272;5.136;2024-01-16T12:15:43;100719.31;;;4.31;82.84
64200;BME280;50516;52.272;5.136;2024-01-16T12:18:09;100717.28;;;4.27;84.00
64200;BME280;50516;52.272;5.136;2024-01-16T12:20:36;100715.63;;;4.37;83.49
64200;BME280;50516;52.272;5.136;2024-01-16T12:23:05;100712.59;;;4.46;82.88
64200;BME280;50516;52.272;5.136;2024-01-16T12:25:34;100714.47;;;4.69;82.35
64200;BME280;50516;52.272;5.136;2024-01-16T12:28:01;100708.56;;;4.84;81.36
64200;BME280;50516;52.272;5.136;2024-01-16T12:30:29;100717.53;;;5.08;81.01
64200;BME280;50516;52.272;5.136;2024-01-16T12:33:08;100708.75;;;5.18;80.40
64200;BME280;50516;52.272;5.136;2024-01-16T12:35:37;100710.03;;;5.15;80.54
64200;BME280;50516;52.272;5.136;2024-01-16T12:38:07;100704.59;;;5.15;79.96
64200;BME280;50516;52.272;5.136;2024-01-16T12:40:41;100702.25;;;5.19;80.17
64200;BME280;50516;52.272;5.136;2024-01-16T12:43:07;100693.72;;;5.15;79.55
64200;BME280;50516;52.272;5.136;2024-01-16T12:45:49;100697.25;;;5.27;79.84
64200;BME280;50516;52.272;5.136;2024-01-16T12:48:25;100695.38;;;5.16;79.99
64200;BME280;50516;52.272;5.136;2024-01-16T12:51:05;100691.91;;;5.33;80.48
64200;BME280;50516;52.272;5.136;2024-01-16T12:53:32;100683.25;;;5.36;80.46
64200;BME280;50516;52.272;5.136;2024-01-16T12:55:59;100688.84;;;5.29;80.42
64200;BME280;50516;52.272;5.136;2024-01-16T12:58:32;100692.22;;;4.96;81.11